Terminal Aerodrome Forecast
Issued by NWS Goodland, KS

Current Version | Previous Version | Text Only | Print | Product List | Glossary On
Versions: 1 2 3 4 5 6 7 8 9 10 11 12 13 14 15 16 17 18 19 20 21
225
FTUS43 KGLD 140106 AAA
TAFGLD
TAF AMD
KGLD 140106Z 1401/1424 16007KT 5SM BR SCT250
     FM140200 22010KT P6SM SCT008 SCT250
     FM140400 30013G21KT P6SM SCT140
     FM140800 32012G20KT P6SM SCT250
     FM141400 30010KT P6SM SCT070 BKN200=

USA.gov is the U.S. government's official web portal to all federal, state and local government web resources and services.